sensor_id;sensor_type;location;lat;lon;timestamp;P1;durP1;ratioP1;P2;durP2;ratioP2
579;SDS011;276;48.392;9.950;2023-03-03T00:01:49;34.27;;;29.90;;
579;SDS011;276;48.392;9.950;2023-03-03T00:04:15;32.37;;;28.10;;
579;SDS011;276;48.392;9.950;2023-03-03T00:06:43;37.53;;;28.20;;
579;SDS011;276;48.392;9.950;2023-03-03T00:09:12;35.50;;;30.03;;
579;SDS011;276;48.392;9.950;2023-03-03T00:11:37;36.93;;;30.87;;
579;SDS011;276;48.392;9.950;2023-03-03T00:14:20;39.10;;;30.67;;
579;SDS011;276;48.392;9.950;2023-03-03T00:16:50;41.53;;;31.53;;
579;SDS011;276;48.392;9.950;2023-03-03T00:19:24;42.00;;;30.80;;
579;SDS011;276;48.392;9.950;2023-03-03T00:21:50;38.03;;;30.27;;
579;SDS011;276;48.392;9.950;2023-03-03T00:24:22;36.67;;;29.63;;
579;SDS011;276;48.392;9.950;2023-03-03T00:27:37;37.67;;;29.97;;
579;SDS011;276;48.392;9.950;2023-03-03T00:30:02;39.30;;;30.87;;
579;SDS011;276;48.392;9.950;2023-03-03T00:32:44;39.50;;;32.90;;
579;SDS011;276;48.392;9.950;2023-03-03T00:35:27;40.40;;;30.97;;
579;SDS011;276;48.392;9.950;2023-03-03T00:38:01;36.93;;;30.70;;
579;SDS011;276;48.392;9.950;2023-03-03T00:40:40;35.03;;;28.20;;
579;SDS011;276;48.392;9.950;2023-03-03T00:45:45;32.90;;;28.50;;
579;SDS011;276;48.392;9.950;2023-03-03T00:48:28;34.57;;;30.23;;
579;SDS011;276;48.392;9.950;2023-03-03T00:51:09;41.50;;;33.87;;
579;SDS011;276;48.392;9.950;2023-03-03T00:53:57;37.57;;;31.17;;
579;SDS011;276;48.392;9.950;2023-03-03T00:56:23;38.53;;;30.40;;
579;SDS011;276;48.392;9.950;2023-03-03T00:58:49;36.10;;;29.90;;
579;SDS011;276;48.392;9.950;2023-03-03T01:01:15;39.90;;;32.20;;
579;SDS011;276;48.392;9.950;2023-03-03T01:03:42;40.83;;;30.23;;
579;SDS011;276;48.392;9.950;2023-03-03T01:06:10;36.47;;;30.37;;
579;SDS011;276;48.392;9.950;2023-03-03T01:08:37;43.67;;;33.93;;
579;SDS011;276;48.392;9.950;2023-03-03T01:11:04;39.37;;;30.10;;
579;SDS011;276;48.392;9.950;2023-03-03T01:13:36;41.60;;;30.63;;
579;SDS011;276;48.392;9.950;2023-03-03T01:16:06;39.50;;;31.23;;
579;SDS011;276;48.392;9.950;2023-03-03T01:18:32;38.47;;;32.03;;
579;SDS011;276;48.392;9.950;2023-03-03T01:20:59;38.00;;;30.50;;
579;SDS011;276;48.392;9.950;2023-03-03T01:23:28;34.73;;;29.93;;
579;SDS011;276;48.392;9.950;2023-03-03T01:25:56;36.27;;;30.67;;
579;SDS011;276;48.392;9.950;2023-03-03T01:28:22;39.30;;;32.47;;
579;SDS011;276;48.392;9.950;2023-03-03T01:30:50;44.27;;;31.60;;
579;SDS011;276;48.392;9.950;2023-03-03T01:33:20;47.03;;;34.80;;
579;SDS011;276;48.392;9.950;2023-03-03T01:35:46;46.63;;;35.33;;
579;SDS011;276;48.392;9.950;2023-03-03T01:38:17;39.43;;;31.70;;
579;SDS011;276;48.392;9.950;2023-03-03T01:40:50;39.40;;;30.37;;
579;SDS011;276;48.392;9.950;2023-03-03T01:43:18;42.90;;;34.00;;
579;SDS011;276;48.392;9.950;2023-03-03T01:46:20;37.00;;;31.13;;
579;SDS011;276;48.392;9.950;2023-03-03T01:48:30;39.97;;;32.03;;
579;SDS011;276;48.392;9.950;2023-03-03T01:51:04;42.43;;;30.63;;
579;SDS011;276;48.392;9.950;2023-03-03T01:54:01;36.13;;;31.30;;
579;SDS011;276;48.392;9.950;2023-03-03T01:56:29;39.53;;;31.10;;
579;SDS011;276;48.392;9.950;2023-03-03T01:59:00;34.27;;;29.97;;
579;SDS011;276;48.392;9.950;2023-03-03T02:01:33;40.77;;;32.40;;
579;SDS011;276;48.392;9.950;2023-03-03T02:03:59;41.40;;;32.70;;
579;SDS011;276;48.392;9.950;2023-03-03T02:06:37;36.20;;;31.87;;
579;SDS011;276;48.392;9.950;2023-03-03T02:11:53;42.13;;;32.60;;
579;SDS011;276;48.392;9.950;2023-03-03T02:14:24;34.97;;;30.50;;
579;SDS011;276;48.392;9.950;2023-03-03T02:16:50;39.50;;;32.13;;
579;SDS011;276;48.392;9.950;2023-03-03T02:19:19;36.37;;;31.00;;
579;SDS011;276;48.392;9.950;2023-03-03T02:21:52;34.33;;;30.00;;
579;SDS011;276;48.392;9.950;2023-03-03T02:24:38;40.80;;;32.53;;
579;SDS011;276;48.392;9.950;2023-03-03T02:27:09;42.13;;;33.53;;
579;SDS011;276;48.392;9.950;2023-03-03T02:29:37;39.17;;;32.20;;
579;SDS011;276;48.392;9.950;2023-03-03T02:32:03;37.57;;;30.90;;
579;SDS011;276;48.392;9.950;2023-03-03T02:34:42;36.17;;;29.03;;
579;SDS011;276;48.392;9.950;2023-03-03T02:37:12;38.37;;;30.80;;
579;SDS011;276;48.392;9.950;2023-03-03T02:39:38;38.90;;;33.30;;
579;SDS011;276;48.392;9.950;2023-03-03T02:42:14;34.50;;;29.47;;
579;SDS011;276;48.392;9.950;2023-03-03T02:44:47;39.47;;;31.93;;
579;SDS011;276;48.392;9.950;2023-03-03T02:47:16;40.67;;;33.97;;
579;SDS011;276;48.392;9.950;2023-03-03T02:49:43;41.00;;;31.00;;
579;SDS011;276;48.392;9.950;2023-03-03T02:52:10;40.37;;;31.23;;
579;SDS011;276;48.392;9.950;2023-03-03T02:54:42;39.80;;;32.40;;
579;SDS011;276;48.392;9.950;2023-03-03T02:57:10;38.80;;;31.70;;
579;SDS011;276;48.392;9.950;2023-03-03T02:59:35;37.43;;;32.23;;
579;SDS011;276;48.392;9.950;2023-03-03T03:02:03;43.17;;;32.30;;
579;SDS011;276;48.392;9.950;2023-03-03T03:04:31;37.70;;;32.20;;
579;SDS011;276;48.392;9.950;2023-03-03T03:06:59;41.40;;;32.13;;
579;SDS011;276;48.392;9.950;2023-03-03T03:09:29;40.33;;;34.00;;
579;SDS011;276;48.392;9.950;2023-03-03T03:11:55;43.33;;;34.17;;
579;SDS011;276;48.392;9.950;2023-03-03T03:14:23;40.80;;;33.43;;
579;SDS011;276;48.392;9.950;2023-03-03T03:16:50;42.40;;;32.23;;
579;SDS011;276;48.392;9.950;2023-03-03T03:19:16;40.43;;;32.60;;
579;SDS011;276;48.392;9.950;2023-03-03T03:21:42;45.43;;;35.70;;
579;SDS011;276;48.392;9.950;2023-03-03T03:24:10;37.67;;;32.43;;
579;SDS011;276;48.392;9.950;2023-03-03T03:26:38;41.87;;;34.00;;
579;SDS011;276;48.392;9.950;2023-03-03T03:29:08;43.13;;;36.13;;
579;SDS011;276;48.392;9.950;2023-03-03T03:31:36;41.50;;;33.53;;
579;SDS011;276;48.392;9.950;2023-03-03T03:34:04;38.70;;;32.43;;
579;SDS011;276;48.392;9.950;2023-03-03T03:36:30;47.10;;;35.97;;
579;SDS011;276;48.392;9.950;2023-03-03T03:38:55;41.97;;;32.37;;
579;SDS011;276;48.392;9.950;2023-03-03T03:41:26;41.23;;;34.50;;
579;SDS011;276;48.392;9.950;2023-03-03T03:43:54;37.77;;;33.50;;
579;SDS011;276;48.392;9.950;2023-03-03T03:46:20;40.30;;;32.37;;
579;SDS011;276;48.392;9.950;2023-03-03T03:48:48;41.77;;;32.70;;
579;SDS011;276;48.392;9.950;2023-03-03T03:51:16;42.47;;;33.43;;
579;SDS011;276;48.392;9.950;2023-03-03T03:53:44;39.10;;;33.47;;
579;SDS011;276;48.392;9.950;2023-03-03T03:56:09;42.47;;;34.47;;
579;SDS011;276;48.392;9.950;2023-03-03T03:58:39;41.77;;;33.10;;
579;SDS011;276;48.392;9.950;2023-03-03T04:01:06;41.20;;;32.83;;
579;SDS011;276;48.392;9.950;2023-03-03T04:03:32;41.77;;;34.40;;
579;SDS011;276;48.392;9.950;2023-03-03T04:06:00;43.27;;;31.70;;
579;SDS011;276;48.392;9.950;2023-03-03T04:08:31;40.63;;;30.53;;
579;SDS011;276;48.392;9.950;2023-03-03T04:10:59;42.00;;;32.33;;
579;SDS011;276;48.392;9.950;2023-03-03T04:13:27;40.23;;;32.50;;
579;SDS011;276;48.392;9.950;2023-03-03T04:15:56;40.40;;;35.10;;
579;SDS011;276;48.392;9.950;2023-03-03T04:18:24;46.53;;;35.73;;
579;SDS011;276;48.392;9.950;2023-03-03T04:20:54;43.57;;;35.10;;
579;SDS011;276;48.392;9.950;2023-03-03T04:23:21;44.23;;;34.70;;
579;SDS011;276;48.392;9.950;2023-03-03T04:25:47;39.23;;;32.87;;
579;SDS011;276;48.392;9.950;2023-03-03T04:28:14;45.00;;;34.50;;
579;SDS011;276;48.392;9.950;2023-03-03T04:30:40;39.53;;;33.63;;
579;SDS011;276;48.392;9.950;2023-03-03T04:33:10;43.40;;;34.10;;
579;SDS011;276;48.392;9.950;2023-03-03T04:35:36;37.07;;;32.67;;
579;SDS011;276;48.392;9.950;2023-03-03T04:38:02;40.80;;;32.70;;
579;SDS011;276;48.392;9.950;2023-03-03T04:40:27;42.07;;;33.33;;
579;SDS011;276;48.392;9.950;2023-03-03T04:42:53;39.83;;;30.90;;
579;SDS011;276;48.392;9.950;2023-03-03T04:45:20;39.93;;;32.27;;
579;SDS011;276;48.392;9.950;2023-03-03T04:47:46;37.40;;;31.40;;
579;SDS011;276;48.392;9.950;2023-03-03T04:50:12;41.40;;;33.53;;
579;SDS011;276;48.392;9.950;2023-03-03T04:52:37;35.37;;;31.53;;
579;SDS011;276;48.392;9.950;2023-03-03T04:55:05;42.67;;;32.30;;
579;SDS011;276;48.392;9.950;2023-03-03T04:57:32;39.70;;;33.53;;
579;SDS011;276;48.392;9.950;2023-03-03T05:00:02;40.57;;;33.70;;
579;SDS011;276;48.392;9.950;2023-03-03T05:02:30;40.73;;;33.70;;
579;SDS011;276;48.392;9.950;2023-03-03T05:04:58;43.33;;;35.90;;
579;SDS011;276;48.392;9.950;2023-03-03T05:07:31;40.93;;;31.30;;
579;SDS011;276;48.392;9.950;2023-03-03T05:09:57;38.63;;;33.07;;
579;SDS011;276;48.392;9.950;2023-03-03T05:12:25;39.43;;;35.03;;
579;SDS011;276;48.392;9.950;2023-03-03T05:14:53;36.93;;;31.40;;
579;SDS011;276;48.392;9.950;2023-03-03T05:17:21;37.87;;;32.77;;
579;SDS011;276;48.392;9.950;2023-03-03T05:19:51;42.50;;;32.03;;
579;SDS011;276;48.392;9.950;2023-03-03T05:22:17;42.73;;;33.73;;
579;SDS011;276;48.392;9.950;2023-03-03T05:24:45;41.00;;;33.23;;
579;SDS011;276;48.392;9.950;2023-03-03T05:27:15;36.10;;;32.27;;
579;SDS011;276;48.392;9.950;2023-03-03T05:29:41;38.20;;;30.50;;
579;SDS011;276;48.392;9.950;2023-03-03T05:32:09;46.40;;;33.43;;
579;SDS011;276;48.392;9.950;2023-03-03T05:34:37;38.10;;;32.80;;
579;SDS011;276;48.392;9.950;2023-03-03T05:37:03;41.27;;;32.23;;
579;SDS011;276;48.392;9.950;2023-03-03T05:39:32;36.70;;;31.90;;
579;SDS011;276;48.392;9.950;2023-03-03T05:42:01;38.80;;;31.57;;
579;SDS011;276;48.392;9.950;2023-03-03T05:44:27;40.63;;;32.30;;
579;SDS011;276;48.392;9.950;2023-03-03T05:46:52;44.67;;;33.30;;
579;SDS011;276;48.392;9.950;2023-03-03T05:49:21;41.00;;;33.47;;
579;SDS011;276;48.392;9.950;2023-03-03T05:51:47;40.10;;;33.13;;
579;SDS011;276;48.392;9.950;2023-03-03T05:54:15;36.53;;;32.63;;
579;SDS011;276;48.392;9.950;2023-03-03T05:56:40;44.33;;;34.93;;
579;SDS011;276;48.392;9.950;2023-03-03T05:59:06;46.63;;;34.80;;
579;SDS011;276;48.392;9.950;2023-03-03T06:01:32;37.47;;;32.23;;
579;SDS011;276;48.392;9.950;2023-03-03T06:03:59;39.37;;;33.80;;
579;SDS011;276;48.392;9.950;2023-03-03T06:06:25;37.33;;;31.23;;
579;SDS011;276;48.392;9.950;2023-03-03T06:08:52;39.13;;;33.30;;
579;SDS011;276;48.392;9.950;2023-03-03T06:11:20;42.83;;;33.50;;
579;SDS011;276;48.392;9.950;2023-03-03T06:13:45;41.53;;;33.10;;
579;SDS011;276;48.392;9.950;2023-03-03T06:16:13;39.67;;;34.17;;
579;SDS011;276;48.392;9.950;2023-03-03T06:18:39;37.87;;;31.60;;
579;SDS011;276;48.392;9.950;2023-03-03T06:21:04;41.27;;;31.80;;
579;SDS011;276;48.392;9.950;2023-03-03T06:23:32;38.37;;;31.73;;
579;SDS011;276;48.392;9.950;2023-03-03T06:25:58;37.37;;;31.57;;
579;SDS011;276;48.392;9.950;2023-03-03T06:28:23;39.57;;;32.17;;
579;SDS011;276;48.392;9.950;2023-03-03T06:30:52;37.07;;;32.97;;
579;SDS011;276;48.392;9.950;2023-03-03T06:33:19;42.20;;;32.17;;
579;SDS011;276;48.392;9.950;2023-03-03T06:35:48;37.50;;;29.50;;
579;SDS011;276;48.392;9.950;2023-03-03T06:38:17;53.10;;;42.60;;
579;SDS011;276;48.392;9.950;2023-03-03T06:40:45;49.40;;;36.33;;
579;SDS011;276;48.392;9.950;2023-03-03T06:43:16;45.90;;;36.10;;
579;SDS011;276;48.392;9.950;2023-03-03T06:45:41;37.03;;;31.53;;
579;SDS011;276;48.392;9.950;2023-03-03T06:48:11;43.40;;;33.33;;
579;SDS011;276;48.392;9.950;2023-03-03T06:50:39;38.20;;;31.13;;
579;SDS011;276;48.392;9.950;2023-03-03T06:55:38;41.33;;;33.83;;
579;SDS011;276;48.392;9.950;2023-03-03T06:58:07;41.33;;;32.10;;
579;SDS011;276;48.392;9.950;2023-03-03T07:00:44;43.33;;;33.87;;
579;SDS011;276;48.392;9.950;2023-03-03T07:03:22;40.37;;;32.80;;
579;SDS011;276;48.392;9.950;2023-03-03T07:05:52;46.10;;;36.30;;
579;SDS011;276;48.392;9.950;2023-03-03T07:08:21;44.37;;;34.23;;
579;SDS011;276;48.392;9.950;2023-03-03T07:10:48;46.40;;;37.47;;
579;SDS011;276;48.392;9.950;2023-03-03T07:15:54;45.80;;;37.87;;
579;SDS011;276;48.392;9.950;2023-03-03T07:21:21;41.33;;;33.70;;
579;SDS011;276;48.392;9.950;2023-03-03T07:23:50;43.93;;;35.93;;
579;SDS011;276;48.392;9.950;2023-03-03T07:26:18;43.17;;;33.80;;
579;SDS011;276;48.392;9.950;2023-03-03T07:28:59;42.63;;;34.07;;
579;SDS011;276;48.392;9.950;2023-03-03T07:31:44;42.13;;;33.90;;
579;SDS011;276;48.392;9.950;2023-03-03T07:37:01;43.87;;;34.80;;
579;SDS011;276;48.392;9.950;2023-03-03T07:39:34;46.10;;;34.10;;
579;SDS011;276;48.392;9.950;2023-03-03T07:44:34;42.30;;;34.30;;
579;SDS011;276;48.392;9.950;2023-03-03T07:49:44;42.43;;;35.27;;
579;SDS011;276;48.392;9.950;2023-03-03T07:54:49;46.87;;;34.53;;
579;SDS011;276;48.392;9.950;2023-03-03T07:59:48;41.23;;;34.57;;
579;SDS011;276;48.392;9.950;2023-03-03T08:02:32;44.10;;;35.70;;
579;SDS011;276;48.392;9.950;2023-03-03T08:18:46;41.07;;;34.07;;
579;SDS011;276;48.392;9.950;2023-03-03T08:21:20;55.53;;;43.63;;
579;SDS011;276;48.392;9.950;2023-03-03T08:23:49;45.80;;;37.20;;
579;SDS011;276;48.392;9.950;2023-03-03T08:26:21;38.67;;;32.57;;
579;SDS011;276;48.392;9.950;2023-03-03T08:28:48;42.47;;;33.93;;
579;SDS011;276;48.392;9.950;2023-03-03T08:31:17;37.57;;;32.43;;
579;SDS011;276;48.392;9.950;2023-03-03T08:33:47;40.87;;;33.10;;
579;SDS011;276;48.392;9.950;2023-03-03T08:36:18;37.53;;;32.40;;
579;SDS011;276;48.392;9.950;2023-03-03T08:38:46;36.90;;;31.70;;
579;SDS011;276;48.392;9.950;2023-03-03T08:41:14;43.57;;;35.27;;
579;SDS011;276;48.392;9.950;2023-03-03T08:43:39;40.57;;;33.13;;
579;SDS011;276;48.392;9.950;2023-03-03T08:46:05;41.87;;;34.20;;
579;SDS011;276;48.392;9.950;2023-03-03T08:48:34;43.27;;;34.80;;
579;SDS011;276;48.392;9.950;2023-03-03T08:51:02;44.57;;;37.33;;
579;SDS011;276;48.392;9.950;2023-03-03T08:53:30;44.90;;;39.40;;
579;SDS011;276;48.392;9.950;2023-03-03T08:55:58;43.50;;;35.57;;
579;SDS011;276;48.392;9.950;2023-03-03T08:58:26;38.80;;;33.53;;
579;SDS011;276;48.392;9.950;2023-03-03T09:00:52;43.00;;;34.50;;
579;SDS011;276;48.392;9.950;2023-03-03T09:03:18;44.17;;;38.20;;
579;SDS011;276;48.392;9.950;2023-03-03T09:05:46;44.80;;;37.90;;
579;SDS011;276;48.392;9.950;2023-03-03T09:08:11;46.60;;;37.33;;
579;SDS011;276;48.392;9.950;2023-03-03T09:10:37;46.43;;;38.47;;
579;SDS011;276;48.392;9.950;2023-03-03T09:13:12;47.13;;;37.30;;
579;SDS011;276;48.392;9.950;2023-03-03T09:15:39;50.07;;;39.80;;
579;SDS011;276;48.392;9.950;2023-03-03T09:18:17;50.43;;;39.17;;
579;SDS011;276;48.392;9.950;2023-03-03T09:21:22;45.40;;;36.97;;
579;SDS011;276;48.392;9.950;2023-03-03T09:34:21;41.13;;;35.97;;
579;SDS011;276;48.392;9.950;2023-03-03T09:36:50;40.90;;;36.30;;
579;SDS011;276;48.392;9.950;2023-03-03T09:39:21;48.23;;;39.60;;
579;SDS011;276;48.392;9.950;2023-03-03T09:47:40;43.43;;;35.53;;
579;SDS011;276;48.392;9.950;2023-03-03T09:50:42;41.80;;;34.80;;
579;SDS011;276;48.392;9.950;2023-03-03T10:07:52;42.00;;;37.07;;
579;SDS011;276;48.392;9.950;2023-03-03T10:10:05;42.40;;;37.23;;
579;SDS011;276;48.392;9.950;2023-03-03T10:15:38;38.13;;;32.10;;
579;SDS011;276;48.392;9.950;2023-03-03T10:26:33;42.57;;;36.10;;
579;SDS011;276;48.392;9.950;2023-03-03T10:31:36;40.10;;;32.57;;
579;SDS011;276;48.392;9.950;2023-03-03T10:37:01;40.60;;;31.73;;
579;SDS011;276;48.392;9.950;2023-03-03T10:47:33;57.23;;;40.90;;
579;SDS011;276;48.392;9.950;2023-03-03T10:56:01;36.37;;;32.50;;
579;SDS011;276;48.392;9.950;2023-03-03T10:58:49;35.10;;;31.53;;
579;SDS011;276;48.392;9.950;2023-03-03T11:21:21;36.00;;;32.20;;
579;SDS011;276;48.392;9.950;2023-03-03T11:24:31;34.80;;;30.13;;
579;SDS011;276;48.392;9.950;2023-03-03T11:35:28;36.30;;;31.13;;
579;SDS011;276;48.392;9.950;2023-03-03T11:40:55;36.47;;;31.80;;
579;SDS011;276;48.392;9.950;2023-03-03T11:46:06;39.07;;;34.87;;
579;SDS011;276;48.392;9.950;2023-03-03T11:56:45;34.77;;;30.00;;
579;SDS011;276;48.392;9.950;2023-03-03T12:05:04;44.20;;;34.30;;
579;SDS011;276;48.392;9.950;2023-03-03T12:08:07;42.37;;;33.27;;
579;SDS011;276;48.392;9.950;2023-03-03T12:13:25;38.77;;;32.60;;
579;SDS011;276;48.392;9.950;2023-03-03T12:18:48;39.60;;;34.83;;
579;SDS011;276;48.392;9.950;2023-03-03T12:26:52;33.57;;;30.00;;
579;SDS011;276;48.392;9.950;2023-03-03T12:38:20;39.10;;;34.40;;
579;SDS011;276;48.392;9.950;2023-03-03T12:41:21;37.27;;;32.50;;
579;SDS011;276;48.392;9.950;2023-03-03T12:44:15;39.83;;;33.80;;
579;SDS011;276;48.392;9.950;2023-03-03T12:52:41;40.30;;;32.17;;
579;SDS011;276;48.392;9.950;2023-03-03T12:58:26;36.10;;;32.20;;
579;SDS011;276;48.392;9.950;2023-03-03T13:00:42;40.93;;;33.77;;
579;SDS011;276;48.392;9.950;2023-03-03T13:06:21;34.90;;;31.13;;
579;SDS011;276;48.392;9.950;2023-03-03T13:17:03;35.77;;;31.33;;
579;SDS011;276;48.392;9.950;2023-03-03T13:22:54;33.63;;;30.07;;
579;SDS011;276;48.392;9.950;2023-03-03T13:28:25;37.27;;;33.23;;
579;SDS011;276;48.392;9.950;2023-03-03T13:31:01;35.53;;;31.87;;
579;SDS011;276;48.392;9.950;2023-03-03T13:33:36;36.77;;;29.80;;
579;SDS011;276;48.392;9.950;2023-03-03T13:36:08;32.03;;;28.50;;
579;SDS011;276;48.392;9.950;2023-03-03T13:38:42;34.90;;;31.20;;
579;SDS011;276;48.392;9.950;2023-03-03T13:44:04;36.30;;;32.30;;
579;SDS011;276;48.392;9.950;2023-03-03T13:46:40;33.50;;;30.03;;
579;SDS011;276;48.392;9.950;2023-03-03T13:52:19;32.90;;;29.30;;
579;SDS011;276;48.392;9.950;2023-03-03T13:58:16;32.40;;;28.90;;
579;SDS011;276;48.392;9.950;2023-03-03T14:06:12;33.50;;;30.00;;
579;SDS011;276;48.392;9.950;2023-03-03T14:19:08;35.83;;;30.40;;
579;SDS011;276;48.392;9.950;2023-03-03T14:22:16;34.30;;;30.70;;
579;SDS011;276;48.392;9.950;2023-03-03T14:27:35;32.20;;;27.67;;
579;SDS011;276;48.392;9.950;2023-03-03T14:32:58;29.40;;;26.23;;
579;SDS011;276;48.392;9.950;2023-03-03T14:35:34;32.67;;;28.53;;
579;SDS011;276;48.392;9.950;2023-03-03T14:40:34;31.43;;;28.23;;
579;SDS011;276;48.392;9.950;2023-03-03T14:43:18;32.30;;;28.87;;
579;SDS011;276;48.392;9.950;2023-03-03T14:46:07;36.27;;;30.73;;
579;SDS011;276;48.392;9.950;2023-03-03T14:49:27;33.93;;;30.27;;
579;SDS011;276;48.392;9.950;2023-03-03T14:54:44;29.33;;;26.33;;
579;SDS011;276;48.392;9.950;2023-03-03T15:00:00;32.07;;;28.67;;
579;SDS011;276;48.392;9.950;2023-03-03T15:05:29;31.53;;;26.60;;
579;SDS011;276;48.392;9.950;2023-03-03T15:12:54;30.13;;;27.00;;
579;SDS011;276;48.392;9.950;2023-03-03T15:15:21;32.73;;;29.20;;
579;SDS011;276;48.392;9.950;2023-03-03T15:26:03;32.73;;;29.30;;
579;SDS011;276;48.392;9.950;2023-03-03T15:31:31;32.50;;;29.13;;
579;SDS011;276;48.392;9.950;2023-03-03T16:04:40;28.73;;;25.70;;
579;SDS011;276;48.392;9.950;2023-03-03T16:07:22;28.57;;;25.57;;
579;SDS011;276;48.392;9.950;2023-03-03T16:09:59;25.17;;;22.57;;
579;SDS011;276;48.392;9.950;2023-03-03T16:12:40;29.90;;;26.85;;
579;SDS011;276;48.392;9.950;2023-03-03T16:26:14;26.90;;;24.10;;
579;SDS011;276;48.392;9.950;2023-03-03T16:31:33;27.10;;;24.30;;
579;SDS011;276;48.392;9.950;2023-03-03T16:36:49;29.07;;;26.07;;
579;SDS011;276;48.392;9.950;2023-03-03T16:41:57;31.93;;;27.23;;
579;SDS011;276;48.392;9.950;2023-03-03T16:47:33;28.50;;;24.93;;
579;SDS011;276;48.392;9.950;2023-03-03T16:52:58;30.23;;;27.07;;
579;SDS011;276;48.392;9.950;2023-03-03T16:55:31;27.93;;;24.90;;
579;SDS011;276;48.392;9.950;2023-03-03T17:00:48;30.03;;;26.50;;
579;SDS011;276;48.392;9.950;2023-03-03T17:06:57;34.73;;;29.60;;
579;SDS011;276;48.392;9.950;2023-03-03T17:17:15;37.77;;;33.80;;
579;SDS011;276;48.392;9.950;2023-03-03T17:23:02;31.03;;;27.67;;
579;SDS011;276;48.392;9.950;2023-03-03T17:31:32;31.53;;;26.93;;
579;SDS011;276;48.392;9.950;2023-03-03T17:39:38;38.60;;;33.30;;
579;SDS011;276;48.392;9.950;2023-03-03T18:23:18;32.90;;;29.40;;
579;SDS011;276;48.392;9.950;2023-03-03T18:25:57;37.70;;;31.83;;
579;SDS011;276;48.392;9.950;2023-03-03T18:31:29;36.83;;;31.23;;
579;SDS011;276;48.392;9.950;2023-03-03T18:34:08;36.10;;;30.83;;
579;SDS011;276;48.392;9.950;2023-03-03T18:39:36;33.30;;;28.77;;
579;SDS011;276;48.392;9.950;2023-03-03T18:44:41;34.97;;;31.10;;
579;SDS011;276;48.392;9.950;2023-03-03T18:47:09;32.17;;;28.60;;
579;SDS011;276;48.392;9.950;2023-03-03T18:52:18;30.27;;;27.07;;
579;SDS011;276;48.392;9.950;2023-03-03T18:54:57;33.37;;;29.80;;
579;SDS011;276;48.392;9.950;2023-03-03T18:57:26;31.63;;;26.87;;
579;SDS011;276;48.392;9.950;2023-03-03T18:59:53;31.43;;;28.03;;
579;SDS011;276;48.392;9.950;2023-03-03T19:02:37;33.90;;;30.40;;
579;SDS011;276;48.392;9.950;2023-03-03T19:12:47;33.83;;;30.27;;
579;SDS011;276;48.392;9.950;2023-03-03T19:20:24;39.27;;;30.77;;
579;SDS011;276;48.392;9.950;2023-03-03T19:23:10;34.47;;;29.03;;
579;SDS011;276;48.392;9.950;2023-03-03T19:25:44;31.90;;;28.70;;
579;SDS011;276;48.392;9.950;2023-03-03T19:39:30;37.80;;;32.03;;
579;SDS011;276;48.392;9.950;2023-03-03T19:53:24;31.40;;;27.33;;
579;SDS011;276;48.392;9.950;2023-03-03T19:59:02;31.37;;;27.97;;
579;SDS011;276;48.392;9.950;2023-03-03T20:01:43;28.47;;;25.20;;
579;SDS011;276;48.392;9.950;2023-03-03T20:15:46;31.03;;;27.73;;
579;SDS011;276;48.392;9.950;2023-03-03T20:18:39;34.37;;;29.20;;
579;SDS011;276;48.392;9.950;2023-03-03T20:56:41;36.33;;;30.83;;
579;SDS011;276;48.392;9.950;2023-03-03T20:59:26;32.13;;;28.83;;
579;SDS011;276;48.392;9.950;2023-03-03T21:02:15;34.90;;;29.73;;
579;SDS011;276;48.392;9.950;2023-03-03T21:05:12;36.10;;;31.07;;
579;SDS011;276;48.392;9.950;2023-03-03T21:08:02;35.33;;;30.10;;
579;SDS011;276;48.392;9.950;2023-03-03T21:10:32;37.13;;;28.70;;
579;SDS011;276;48.392;9.950;2023-03-03T21:21:32;34.23;;;29.17;;
579;SDS011;276;48.392;9.950;2023-03-03T21:24:00;34.83;;;29.53;;
579;SDS011;276;48.392;9.950;2023-03-03T21:29:35;37.17;;;30.13;;
579;SDS011;276;48.392;9.950;2023-03-03T21:32:03;34.93;;;30.40;;
579;SDS011;276;48.392;9.950;2023-03-03T21:36:59;31.27;;;27.53;;
579;SDS011;276;48.392;9.950;2023-03-03T21:41:58;32.50;;;28.93;;
579;SDS011;276;48.392;9.950;2023-03-03T21:44:35;35.00;;;28.67;;
579;SDS011;276;48.392;9.950;2023-03-03T21:47:04;36.70;;;29.27;;
579;SDS011;276;48.392;9.950;2023-03-03T21:49:32;29.77;;;26.67;;
579;SDS011;276;48.392;9.950;2023-03-03T21:51:58;34.93;;;29.90;;
579;SDS011;276;48.392;9.950;2023-03-03T21:54:24;38.80;;;32.20;;
579;SDS011;276;48.392;9.950;2023-03-03T21:56:53;40.73;;;34.47;;
579;SDS011;276;48.392;9.950;2023-03-03T21:59:21;41.10;;;35.00;;
579;SDS011;276;48.392;9.950;2023-03-03T22:01:51;42.00;;;33.70;;
579;SDS011;276;48.392;9.950;2023-03-03T22:04:19;37.53;;;33.17;;
579;SDS011;276;48.392;9.950;2023-03-03T22:06:50;41.70;;;33.93;;
579;SDS011;276;48.392;9.950;2023-03-03T22:09:20;38.80;;;32.03;;
579;SDS011;276;48.392;9.950;2023-03-03T22:11:48;34.90;;;29.80;;
579;SDS011;276;48.392;9.950;2023-03-03T22:14:16;34.20;;;30.50;;
579;SDS011;276;48.392;9.950;2023-03-03T22:16:44;41.50;;;30.00;;
579;SDS011;276;48.392;9.950;2023-03-03T22:19:12;36.30;;;28.67;;
579;SDS011;276;48.392;9.950;2023-03-03T22:21:38;34.60;;;30.83;;
579;SDS011;276;48.392;9.950;2023-03-03T22:24:06;31.87;;;28.40;;
579;SDS011;276;48.392;9.950;2023-03-03T22:26:32;34.50;;;29.93;;
579;SDS011;276;48.392;9.950;2023-03-03T22:28:58;36.63;;;31.10;;
579;SDS011;276;48.392;9.950;2023-03-03T22:31:26;37.37;;;29.70;;
579;SDS011;276;48.392;9.950;2023-03-03T22:33:52;30.20;;;27.00;;
579;SDS011;276;48.392;9.950;2023-03-03T22:36:18;31.83;;;27.47;;
579;SDS011;276;48.392;9.950;2023-03-03T22:38:44;31.90;;;26.83;;
579;SDS011;276;48.392;9.950;2023-03-03T22:41:15;29.87;;;26.57;;
579;SDS011;276;48.392;9.950;2023-03-03T22:43:45;31.47;;;27.10;;
579;SDS011;276;48.392;9.950;2023-03-03T22:46:12;32.10;;;27.03;;
579;SDS011;276;48.392;9.950;2023-03-03T22:48:38;29.73;;;26.67;;
579;SDS011;276;48.392;9.950;2023-03-03T22:51:04;32.97;;;26.70;;
579;SDS011;276;48.392;9.950;2023-03-03T22:53:30;36.10;;;28.13;;
579;SDS011;276;48.392;9.950;2023-03-03T22:56:00;33.27;;;28.00;;
579;SDS011;276;48.392;9.950;2023-03-03T22:58:30;32.93;;;27.90;;
579;SDS011;276;48.392;9.950;2023-03-03T23:01:01;31.87;;;26.03;;
579;SDS011;276;48.392;9.950;2023-03-03T23:03:31;30.60;;;26.90;;
579;SDS011;276;48.392;9.950;2023-03-03T23:06:03;31.00;;;25.37;;
579;SDS011;276;48.392;9.950;2023-03-03T23:08:31;33.50;;;26.60;;
579;SDS011;276;48.392;9.950;2023-03-03T23:10:57;29.80;;;26.77;;
579;SDS011;276;48.392;9.950;2023-03-03T23:13:30;30.83;;;27.10;;
579;SDS011;276;48.392;9.950;2023-03-03T23:15:56;29.43;;;25.93;;
579;SDS011;276;48.392;9.950;2023-03-03T23:18:26;31.17;;;26.53;;
579;SDS011;276;48.392;9.950;2023-03-03T23:20:55;33.00;;;28.53;;
579;SDS011;276;48.392;9.950;2023-03-03T23:23:23;32.50;;;27.87;;
579;SDS011;276;48.392;9.950;2023-03-03T23:25:54;29.23;;;25.07;;
579;SDS011;276;48.392;9.950;2023-03-03T23:28:20;31.30;;;28.00;;
579;SDS011;276;48.392;9.950;2023-03-03T23:30:46;33.37;;;29.07;;
579;SDS011;276;48.392;9.950;2023-03-03T23:33:11;34.27;;;27.33;;
579;SDS011;276;48.392;9.950;2023-03-03T23:35:42;32.83;;;28.63;;
579;SDS011;276;48.392;9.950;2023-03-03T23:38:10;33.37;;;28.83;;
579;SDS011;276;48.392;9.950;2023-03-03T23:40:43;29.70;;;26.43;;
579;SDS011;276;48.392;9.950;2023-03-03T23:43:15;33.37;;;28.23;;
579;SDS011;276;48.392;9.950;2023-03-03T23:45:40;30.23;;;25.67;;
579;SDS011;276;48.392;9.950;2023-03-03T23:48:06;32.30;;;28.53;;
579;SDS011;276;48.392;9.950;2023-03-03T23:50:31;35.33;;;28.80;;
579;SDS011;276;48.392;9.950;2023-03-03T23:53:01;35.63;;;28.50;;